Arlington, MS

10:04 AM CDT on May 04, 2015 (GMT -0500)
Downtown (Perkins Bldg) | | Change Station
CLOSE
Current Station
Personal Weather Station
Location: Brookhaven, MS
Elevation: 473 ft
Nearby Weather Stations

Elev 473 ft 31.58 °N, 90.44 °W | Updated 2 minutes ago

Mostly Cloudy
Mostly Cloudy
75.9 °F
Feels Like 78 °F
N
0.0
Wind Variable Wind from East

Today
High -- | Low -- °F
--% Chance of Precip.
Yesterday
High -- | Low -- °F
Precip. -- in
6:14 AM 7:43 PM
Full, 100% visible
Pressure 30.24 in
Visibility 7.0 miles
Clouds Scattered Clouds 4700 ft
Heat Index 78 °F
Dew Point 65 °F
Humidity 68%
Rainfall 0.00 in
Snow Depth Not available.
UV 4 out of 12
Pollen 7.40 out of 12
Air Quality Not available.
Flu Activity No Activity
METAR K1R7 041435Z AUTO 07005KT 7SM SCT047 21/18 A3024 RMK AO2

More Conditions Fewer Conditions

Pressure 30.24 in
Visibility 7.0 miles
Clouds Scattered Clouds 4700 ft
Heat Index 78 °F
Dew Point 65 °F
Humidity 68%
Rainfall 0.00 in
Snow Depth Not available.
UV 4 out of 12
Pollen 7.40 out of 12
Air Quality Not available.
Flu Activity No Activity
METAR K1R7 041435Z AUTO 07005KT 7SM SCT047 21/18 A3024 RMK AO2

More Conditions Fewer Conditions

Nepal has a long way to go to dig out and rebuild from a devastating earthquake. We have teamed up with several charities and organizations to make contributing to the relief effort as easy as possible.
How you can help: Portlight Strategies | Red Cross

10-Day Weather Forecast

Almanac

Astronomy

May. 04, 2015 Rise Set
Actual Time
Civil Twilight
Nautical Twilight
Astronomical Twilight
Moon
Length of Visible Light
Length of Day
Tomorrow will be .
, % of the Moon is Illuminated

Today's Extremes

State Highs State Lows

Community

WunderPhotos

Upload Photos

1,818,629 photos uploaded!

WunderBlogs® & News

Nearby

Air Quality

  Air Quality AQ Index Pollutant
Not available.

Snow Depth

Station Depth Elevation

Earthquake Activity

City Distance Mag. Time & Date
Minimum magnitude displayed is 2.5.

Coastal Water Temperatures

Place Temperature

Stations

Nearby Weather Stations

Station Location Temp. Windchill Dew Point Humidity Wind Precip. Elev Updated Type